Time;durP1;ratioP1;P1;durP2;ratioP2;P2;SDS_P1;SDS_P2;PMS_P1;PMS_P2;Temp;Humidity;BMP_temperature;BMP_pressure;BME280_temperature;BME280_humidity;BME280_pressure;Samples;Min_cycle;Max_cycle;Signal;HPM_P1;HPM_P2
2021/04/03 00:00:33;;;;;;;31.05;4.20;;;;;;;;;;5072038;28;20030;-64
2021/04/03 00:02:59;;;;;;;29.05;3.45;;;;;;;;;;5068670;27;20141;-63
2021/04/03 00:05:25;;;;;;;21.13;3.05;;;;;;;;;;5078072;27;21234;-63
2021/04/03 00:07:51;;;;;;;22.23;3.33;;;;;;;;;;5071941;27;20031;-63
2021/04/03 00:10:22;;;;;;;25.77;3.17;;;;;;;;;;5069154;27;20030;-63
2021/04/03 00:12:48;;;;;;;27.63;3.80;;;;;;;;;;5085081;27;20019;-62
2021/04/03 00:15:14;;;;;;;28.40;3.05;;;;;;;;;;5068813;28;20089;-62
2021/04/03 00:17:42;;;;;;;26.38;3.33;;;;;;;;;;5071119;27;20080;-62
2021/04/03 00:20:13;;;;;;;19.90;2.95;;;;;;;;;;5068660;27;20035;-62
2021/04/03 00:22:39;;;;;;;17.38;2.50;;;;;;;;;;5087582;27;20031;-62
2021/04/03 00:25:05;;;;;;;19.30;3.60;;;;;;;;;;5059420;27;20081;-62
2021/04/03 00:27:30;;;;;;;23.10;3.40;;;;;;;;;;5067753;27;20954;-62
2021/04/03 00:29:58;;;;;;;29.35;3.28;;;;;;;;;;5055508;27;20034;-63
2021/04/03 00:32:24;;;;;;;20.05;4.05;;;;;;;;;;5086716;27;20032;-63
2021/04/03 00:34:54;;;;;;;27.58;3.47;;;;;;;;;;5087187;27;20399;-63
2021/04/03 00:37:19;;;;;;;22.40;3.55;;;;;;;;;;5051301;27;20118;-63
2021/04/03 00:39:47;;;;;;;31.17;3.75;;;;;;;;;;5069461;27;20036;-63
2021/04/03 00:42:16;;;;;;;24.38;3.20;;;;;;;;;;5070426;27;20043;-63
2021/04/03 00:44:48;;;;;;;23.52;3.03;;;;;;;;;;5072125;28;20050;-63
2021/04/03 00:47:15;;;;;;;25.63;3.20;;;;;;;;;;5086048;27;20031;-63
2021/04/03 00:49:46;;;;;;;22.55;3.75;;;;;;;;;;5068616;27;20020;-63
2021/04/03 00:52:14;;;;;;;36.15;4.25;;;;;;;;;;5068652;28;20024;-62
2021/04/03 00:54:42;;;;;;;29.20;4.05;;;;;;;;;;5068275;27;20032;-62
2021/04/03 00:57:09;;;;;;;30.00;3.83;;;;;;;;;;5080614;27;20050;-61
2021/04/03 00:59:37;;;;;;;30.35;4.13;;;;;;;;;;5054751;28;20036;-62
2021/04/03 01:02:05;;;;;;;26.20;3.33;;;;;;;;;;5053693;28;20573;-62
2021/04/03 01:04:34;;;;;;;26.20;3.67;;;;;;;;;;5087170;27;20383;-62
2021/04/03 01:07:00;;;;;;;26.90;3.08;;;;;;;;;;5083859;27;20019;-62
2021/04/03 01:09:26;;;;;;;23.95;3.08;;;;;;;;;;5058642;28;20514;-65
2021/04/03 01:12:02;;;;;;;20.83;5.07;;;;;;;;;;5067404;27;20348;-62
2021/04/03 01:14:36;;;;;;;31.85;3.80;;;;;;;;;;5086773;27;20035;-63
2021/04/03 01:17:12;;;;;;;30.90;4.25;;;;;;;;;;5068779;27;20515;-62
2021/04/03 01:19:46;;;;;;;24.60;3.65;;;;;;;;;;5085859;27;20641;-66
2021/04/03 01:22:31;;;;;;;29.52;3.78;;;;;;;;;;5082214;27;20024;-62
2021/04/03 01:24:59;;;;;;;24.63;3.92;;;;;;;;;;5085626;27;20114;-61
2021/04/03 01:27:30;;;;;;;34.20;4.07;;;;;;;;;;5084385;27;21972;-63
2021/04/03 01:30:03;;;;;;;26.65;3.83;;;;;;;;;;5050407;28;21066;-63
2021/04/03 01:32:30;;;;;;;;;;;;;;;;;;5049857;28;20050;-63
2021/04/03 01:34:57;;;;;;;30.67;3.63;;;;;;;;;;5085851;27;20002;-63
2021/04/03 01:37:23;;;;;;;30.65;3.97;;;;;;;;;;5061340;28;20115;-62
2021/04/03 01:39:52;;;;;;;22.73;4.28;;;;;;;;;;5086150;27;20027;-63
2021/04/03 01:42:19;;;;;;;30.98;3.63;;;;;;;;;;5060108;28;21002;-62
2021/04/03 01:44:52;;;;;;;24.65;3.42;;;;;;;;;;5066059;28;20054;-62
2021/04/03 01:47:24;;;;;;;20.05;2.88;;;;;;;;;;5068931;28;20134;-64
2021/04/03 01:49:54;;;;;;;29.52;3.35;;;;;;;;;;5084445;27;20130;-62
2021/04/03 01:52:24;;;;;;;33.47;4.20;;;;;;;;;;5050142;28;20038;-64
2021/04/03 01:54:51;;;;;;;23.23;3.28;;;;;;;;;;5085771;28;20031;-63
2021/04/03 01:57:22;;;;;;;28.88;3.70;;;;;;;;;;5062765;28;20042;-63
2021/04/03 01:59:50;;;;;;;18.33;3.30;;;;;;;;;;5085222;28;20030;-63
2021/04/03 02:02:16;;;;;;;35.10;4.22;;;;;;;;;;5068459;28;20062;-63
2021/04/03 02:04:45;;;;;;;24.20;3.67;;;;;;;;;;5086601;28;20034;-62
2021/04/03 02:07:15;;;;;;;33.70;3.92;;;;;;;;;;5067625;28;20150;-62
2021/04/03 02:09:46;;;;;;;27.02;3.40;;;;;;;;;;5051987;28;20039;-64
2021/04/03 02:12:16;;;;;;;13.15;2.92;;;;;;;;;;5067815;28;20036;-63
2021/04/03 02:14:46;;;;;;;27.00;3.65;;;;;;;;;;5069865;28;20627;-62
2021/04/03 02:17:13;;;;;;;29.23;3.50;;;;;;;;;;5069815;28;20044;-62
2021/04/03 02:19:39;;;;;;;16.90;3.20;;;;;;;;;;5066478;28;20043;-62
2021/04/03 02:22:05;;;;;;;23.70;4.10;;;;;;;;;;5084721;28;20513;-62
2021/04/03 02:24:33;;;;;;;28.38;4.07;;;;;;;;;;5083936;28;20059;-62
2021/04/03 02:26:59;;;;;;;24.23;4.28;;;;;;;;;;5066539;28;20148;-61
2021/04/03 02:29:24;;;;;;;18.70;3.72;;;;;;;;;;5049894;28;20028;-63
2021/04/03 02:31:53;;;;;;;30.13;3.28;;;;;;;;;;5064635;28;20034;-62
2021/04/03 02:34:21;;;;;;;20.10;3.30;;;;;;;;;;5085530;28;20036;-63
2021/04/03 02:36:48;;;;;;;26.67;3.03;;;;;;;;;;5065638;28;20946;-62
2021/04/03 02:39:16;;;;;;;19.73;3.55;;;;;;;;;;5067669;28;20050;-63
2021/04/03 02:41:55;;;;;;;27.88;4.25;;;;;;;;;;5064595;28;20035;-62
2021/04/03 02:44:26;;;;;;;23.88;3.22;;;;;;;;;;5069511;28;20130;-62
2021/04/03 02:46:57;;;;;;;21.20;3.17;;;;;;;;;;5048792;28;20138;-63
2021/04/03 02:49:30;;;;;;;13.82;3.33;;;;;;;;;;5065807;28;20454;-63
2021/04/03 02:52:02;;;;;;;34.03;3.72;;;;;;;;;;5085376;28;20640;-63
2021/04/03 02:54:29;;;;;;;32.70;4.25;;;;;;;;;;5068136;28;20028;-62
2021/04/03 02:56:58;;;;;;;21.55;3.70;;;;;;;;;;5053798;28;20046;-62
2021/04/03 02:59:28;;;;;;;31.42;4.28;;;;;;;;;;5063626;28;21062;-62
2021/04/03 03:01:55;;;;;;;20.15;3.15;;;;;;;;;;5065269;27;20051;-62
2021/04/03 03:04:24;;;;;;;27.58;3.65;;;;;;;;;;5070036;27;20040;-62
2021/04/03 03:06:50;;;;;;;16.83;2.90;;;;;;;;;;5057665;27;20047;-63
2021/04/03 03:09:17;;;;;;;23.17;3.83;;;;;;;;;;5064362;27;21898;-62
2021/04/03 03:11:47;;;;;;;21.63;3.58;;;;;;;;;;5090589;27;20123;-62
2021/04/03 03:14:13;;;;;;;22.55;2.85;;;;;;;;;;5074523;27;20135;-62
2021/04/03 03:16:42;;;;;;;12.82;2.72;;;;;;;;;;5059706;27;20039;-62
2021/04/03 03:19:11;;;;;;;19.52;2.95;;;;;;;;;;5089938;27;20027;-62
2021/04/03 03:21:37;;;;;;;21.88;3.75;;;;;;;;;;5065052;27;20810;-62
2021/04/03 03:24:07;;;;;;;25.98;3.17;;;;;;;;;;5090220;27;20101;-62
2021/04/03 03:26:33;;;;;;;18.30;3.10;;;;;;;;;;5056092;27;20032;-62
2021/04/03 03:29:07;;;;;;;22.13;3.65;;;;;;;;;;5089034;27;20200;-61
2021/04/03 03:31:35;;;;;;;19.47;2.53;;;;;;;;;;5072575;27;20107;-63
2021/04/03 03:34:00;;;;;;;27.23;5.00;;;;;;;;;;5053779;27;20058;-63
2021/04/03 03:36:29;;;;;;;25.88;2.85;;;;;;;;;;5091458;27;20040;-62
2021/04/03 03:38:55;;;;;;;27.08;4.25;;;;;;;;;;5071792;27;20020;-63
2021/04/03 03:41:24;;;;;;;33.22;3.40;;;;;;;;;;5051703;27;20028;-62
2021/04/03 03:43:53;;;;;;;32.85;3.85;;;;;;;;;;5086362;27;20485;-62
2021/04/03 03:46:18;;;;;;;21.73;3.40;;;;;;;;;;5085047;27;20036;-62
2021/04/03 03:48:49;;;;;;;21.65;4.32;;;;;;;;;;5069989;27;20023;-62
2021/04/03 03:51:14;;;;;;;26.73;3.38;;;;;;;;;;5089678;27;20028;-62
2021/04/03 03:53:42;;;;;;;22.05;4.38;;;;;;;;;;5070110;27;20046;-62
2021/04/03 03:56:10;;;;;;;21.13;2.90;;;;;;;;;;5052677;27;20042;-62
2021/04/03 03:58:36;;;;;;;30.80;5.03;;;;;;;;;;5054597;27;20133;-62
2021/04/03 04:01:04;;;;;;;24.80;4.45;;;;;;;;;;5069737;27;20498;-62
2021/04/03 04:03:31;;;;;;;21.95;5.10;;;;;;;;;;5054564;28;20038;-66
2021/04/03 04:06:04;;;;;;;31.05;4.35;;;;;;;;;;5072563;27;20031;-62
2021/04/03 04:08:29;;;;;;;27.50;3.90;;;;;;;;;;5070189;28;20027;-61
2021/04/03 04:10:57;;;;;;;34.35;3.47;;;;;;;;;;5067143;27;20084;-62
2021/04/03 04:13:23;;;;;;;32.75;4.70;;;;;;;;;;5086270;27;20034;-62
2021/04/03 04:15:49;;;;;;;30.20;3.78;;;;;;;;;;5070465;28;20047;-62
2021/04/03 04:18:15;;;;;;;31.60;4.05;;;;;;;;;;5087212;27;20032;-62
2021/04/03 04:20:48;;;;;;;29.13;3.95;;;;;;;;;;5055351;27;20399;-62
2021/04/03 04:23:13;;;;;;;21.05;3.38;;;;;;;;;;5067694;27;20028;-62
2021/04/03 04:25:44;;;;;;;27.13;3.75;;;;;;;;;;5071300;27;20039;-62
2021/04/03 04:28:12;;;;;;;25.38;4.28;;;;;;;;;;5068571;27;20038;-63
2021/04/03 04:30:42;;;;;;;27.10;3.90;;;;;;;;;;5056452;28;20465;-63
2021/04/03 04:33:10;;;;;;;34.55;4.38;;;;;;;;;;5053183;28;20502;-63
2021/04/03 04:35:36;;;;;;;19.65;3.30;;;;;;;;;;5088501;27;22168;-64
2021/04/03 04:38:04;;;;;;;25.17;4.57;;;;;;;;;;5087583;27;20038;-62
2021/04/03 04:40:29;;;;;;;35.20;4.28;;;;;;;;;;5054532;27;20034;-62
2021/04/03 04:42:58;;;;;;;37.55;4.50;;;;;;;;;;5069362;27;20540;-62
2021/04/03 04:45:25;;;;;;;24.92;4.13;;;;;;;;;;5042223;28;20060;-64
2021/04/03 04:47:53;;;;;;;28.35;3.40;;;;;;;;;;5030484;28;20036;-64
2021/04/03 04:50:21;;;;;;;25.45;3.50;;;;;;;;;;5031691;28;20082;-62
2021/04/03 04:52:49;;;;;;;32.80;4.07;;;;;;;;;;5046682;28;20024;-64
2021/04/03 04:55:17;;;;;;;23.33;3.35;;;;;;;;;;5044518;28;20384;-62
2021/04/03 04:57:48;;;;;;;30.83;3.85;;;;;;;;;;5014766;28;20825;-62
2021/04/03 05:00:16;;;;;;;22.55;3.50;;;;;;;;;;5043258;28;20074;-62
2021/04/03 05:02:44;;;;;;;27.85;3.75;;;;;;;;;;5027882;28;20064;-64
2021/04/03 05:05:13;;;;;;;38.22;3.92;;;;;;;;;;5030929;28;20044;-64
2021/04/03 05:07:44;;;;;;;21.35;4.30;;;;;;;;;;5047452;28;20760;-63
2021/04/03 05:10:17;;;;;;;53.58;4.50;;;;;;;;;;5045689;28;20032;-61
2021/04/03 05:12:44;;;;;;;20.38;3.80;;;;;;;;;;5042074;28;20032;-63
2021/04/03 05:15:17;;;;;;;28.73;4.43;;;;;;;;;;5046646;28;20491;-61
2021/04/03 05:17:44;;;;;;;30.75;4.70;;;;;;;;;;5059394;28;20033;-63
2021/04/03 05:20:13;;;;;;;33.60;4.72;;;;;;;;;;5044405;28;20032;-62
2021/04/03 05:22:42;;;;;;;22.85;4.57;;;;;;;;;;5046809;28;20025;-62
2021/04/03 05:25:08;;;;;;;17.55;2.95;;;;;;;;;;5029593;28;20386;-62
2021/04/03 05:27:36;;;;;;;37.47;4.63;;;;;;;;;;5039471;28;20033;-63
2021/04/03 05:30:02;;;;;;;27.23;3.85;;;;;;;;;;5042751;28;20137;-63
2021/04/03 05:32:30;;;;;;;24.95;3.65;;;;;;;;;;5019582;28;20707;-63
2021/04/03 05:34:59;;;;;;;27.13;4.35;;;;;;;;;;5021212;28;20075;-63
2021/04/03 05:37:24;;;;;;;35.22;3.33;;;;;;;;;;5044218;28;20480;-63
2021/04/03 05:39:52;;;;;;;26.85;3.08;;;;;;;;;;5044767;28;20052;-62
2021/04/03 05:42:24;;;;;;;32.60;3.80;;;;;;;;;;5027088;28;20028;-63
2021/04/03 05:44:51;;;;;;;22.38;3.72;;;;;;;;;;5050919;28;20052;-63
2021/04/03 05:47:20;;;;;;;27.38;3.80;;;;;;;;;;5065901;28;20031;-63
2021/04/03 05:49:48;;;;;;;26.98;3.63;;;;;;;;;;5065941;28;20025;-62
2021/04/03 05:52:13;;;;;;;24.33;3.63;;;;;;;;;;5064482;28;20020;-62
2021/04/03 05:54:42;;;;;;;29.88;3.60;;;;;;;;;;5064796;28;20035;-62
2021/04/03 05:57:13;;;;;;;28.50;3.72;;;;;;;;;;5066198;28;20152;-62
2021/04/03 05:59:39;;;;;;;25.55;3.40;;;;;;;;;;5066979;28;20037;-62
2021/04/03 06:02:07;;;;;;;28.60;3.95;;;;;;;;;;5046142;28;20034;-63
2021/04/03 06:04:33;;;;;;;23.33;3.78;;;;;;;;;;5050269;28;20024;-62
2021/04/03 06:06:58;;;;;;;29.02;4.38;;;;;;;;;;5064308;28;20132;-61
2021/04/03 06:09:24;;;;;;;21.08;3.35;;;;;;;;;;5061227;28;20631;-61
2021/04/03 06:11:52;;;;;;;17.33;3.50;;;;;;;;;;5053822;28;20056;-63
2021/04/03 06:14:18;;;;;;;21.60;3.90;;;;;;;;;;5066517;28;20459;-63
2021/04/03 06:16:51;;;;;;;30.83;3.80;;;;;;;;;;5064484;28;20024;-63
2021/04/03 06:19:28;;;;;;;22.75;3.65;;;;;;;;;;5063961;28;21182;-62
2021/04/03 06:21:53;;;;;;;27.98;3.72;;;;;;;;;;5064699;28;20028;-63
2021/04/03 06:24:25;;;;;;;19.65;4.18;;;;;;;;;;5062247;28;20033;-63
2021/04/03 06:26:56;;;;;;;39.30;4.47;;;;;;;;;;5065808;28;20036;-63
2021/04/03 06:29:26;;;;;;;25.05;3.97;;;;;;;;;;5055099;28;20115;-62
2021/04/03 06:31:56;;;;;;;32.72;5.05;;;;;;;;;;5064373;28;20112;-63
2021/04/03 06:34:28;;;;;;;33.25;4.95;;;;;;;;;;5065282;28;20147;-62
2021/04/03 06:36:56;;;;;;;21.35;3.55;;;;;;;;;;5057174;28;20027;-62
2021/04/03 06:39:29;;;;;;;26.08;3.97;;;;;;;;;;5065970;28;20035;-63
2021/04/03 06:41:57;;;;;;;28.30;4.30;;;;;;;;;;5051830;28;20041;-63
2021/04/03 06:44:25;;;;;;;27.10;4.53;;;;;;;;;;5062763;27;20043;-63
2021/04/03 06:46:52;;;;;;;39.45;4.18;;;;;;;;;;5053757;27;20036;-64
2021/04/03 06:49:20;;;;;;;27.00;4.85;;;;;;;;;;5069624;27;20031;-64
2021/04/03 06:51:45;;;;;;;32.28;4.88;;;;;;;;;;5071214;27;20035;-63
2021/04/03 06:54:13;;;;;;;35.15;5.10;;;;;;;;;;5087421;27;20032;-63
2021/04/03 06:56:41;;;;;;;24.77;4.07;;;;;;;;;;5054830;27;20027;-62
2021/04/03 06:59:11;;;;;;;32.40;3.92;;;;;;;;;;5089201;27;20067;-62
2021/04/03 07:01:38;;;;;;;30.73;4.57;;;;;;;;;;5050445;27;20035;-62
2021/04/03 07:04:13;;;;;;;30.17;4.57;;;;;;;;;;5087514;27;20035;-63
2021/04/03 07:06:44;;;;;;;40.63;5.55;;;;;;;;;;5087935;27;20517;-63
2021/04/03 07:09:10;;;;;;;19.33;3.95;;;;;;;;;;5062698;27;20032;-61
2021/04/03 07:11:38;;;;;;;22.35;4.63;;;;;;;;;;5085863;27;20035;-63
2021/04/03 07:14:09;;;;;;;23.17;3.92;;;;;;;;;;5078344;27;20042;-63
2021/04/03 07:16:36;;;;;;;23.17;3.50;;;;;;;;;;5085700;27;20035;-63
2021/04/03 07:19:03;;;;;;;32.13;4.45;;;;;;;;;;5077354;27;20028;-63
2021/04/03 07:21:32;;;;;;;27.52;5.43;;;;;;;;;;5085802;27;20055;-63
2021/04/03 07:24:01;;;;;;;23.75;3.60;;;;;;;;;;5071961;27;20036;-62
2021/04/03 07:26:29;;;;;;;24.95;4.60;;;;;;;;;;5065818;27;20047;-63
2021/04/03 07:28:55;;;;;;;27.45;4.18;;;;;;;;;;5089763;27;20760;-63
2021/04/03 07:31:36;;;;;;;28.23;4.35;;;;;;;;;;5086559;27;20031;-64
2021/04/03 07:34:03;;;;;;;26.27;4.25;;;;;;;;;;5088388;27;20035;-63
2021/04/03 07:36:35;;;;;;;23.80;3.88;;;;;;;;;;5089625;27;20070;-63
2021/04/03 07:39:04;;;;;;;27.88;4.60;;;;;;;;;;5069365;28;20569;-64
2021/04/03 07:41:37;;;;;;;27.30;4.05;;;;;;;;;;5070621;27;20145;-63
2021/04/03 07:44:10;;;;;;;30.75;4.25;;;;;;;;;;5085247;27;20097;-65
2021/04/03 07:46:37;;;;;;;29.60;4.57;;;;;;;;;;5044808;27;20052;-63
2021/04/03 07:49:03;;;;;;;38.15;5.07;;;;;;;;;;5067529;27;20460;-65
2021/04/03 07:51:32;;;;;;;26.67;3.70;;;;;;;;;;5069843;28;20056;-63
2021/04/03 07:54:01;;;;;;;22.70;3.97;;;;;;;;;;5085416;27;20171;-63
2021/04/03 07:56:46;;;;;;;28.42;3.92;;;;;;;;;;5087932;27;22011;-64
2021/04/03 07:59:12;;;;;;;;;;;;;;;;;;5071187;27;20093;-62
2021/04/03 08:01:38;;;;;;;24.70;4.70;;;;;;;;;;5084504;27;20317;-64
2021/04/03 08:04:04;;;;;;;25.73;3.70;;;;;;;;;;5067406;27;20102;-63
2021/04/03 08:06:33;;;;;;;32.45;4.07;;;;;;;;;;5086002;27;20034;-62
2021/04/03 08:08:59;;;;;;;28.98;3.92;;;;;;;;;;5088449;27;20375;-63
2021/04/03 08:11:25;;;;;;;28.83;4.03;;;;;;;;;;5055148;27;20147;-62
2021/04/03 08:13:54;;;;;;;25.25;3.13;;;;;;;;;;5070374;27;20034;-63
2021/04/03 08:16:22;;;;;;;16.40;4.13;;;;;;;;;;5069320;27;20046;-62
2021/04/03 08:18:52;;;;;;;19.02;3.90;;;;;;;;;;5073431;28;20032;-65
2021/04/03 08:21:18;;;;;;;24.70;3.50;;;;;;;;;;5086877;27;20031;-63
2021/04/03 08:23:50;;;;;;;21.10;3.67;;;;;;;;;;5066663;27;20031;-64
2021/04/03 08:26:20;;;;;;;26.70;4.57;;;;;;;;;;5051933;28;20455;-63
2021/04/03 08:28:49;;;;;;;19.70;3.22;;;;;;;;;;5066343;27;20231;-62
2021/04/03 08:31:26;;;;;;;25.38;3.58;;;;;;;;;;5066308;28;20535;-63
2021/04/03 08:33:55;;;;;;;28.33;3.95;;;;;;;;;;5066991;27;20043;-63
2021/04/03 08:36:24;;;;;;;23.23;3.90;;;;;;;;;;5047981;27;20043;-62
2021/04/03 08:38:50;;;;;;;18.70;2.83;;;;;;;;;;5064650;27;20154;-63
2021/04/03 08:41:22;;;;;;;26.70;3.78;;;;;;;;;;5063166;27;20060;-64
2021/04/03 08:43:48;;;;;;;25.83;3.83;;;;;;;;;;5056816;27;20031;-63
2021/04/03 08:46:17;;;;;;;21.33;3.10;;;;;;;;;;5057646;28;20074;-63
2021/04/03 08:48:47;;;;;;;18.92;3.38;;;;;;;;;;5062515;28;20135;-65
2021/04/03 08:51:13;;;;;;;18.48;3.88;;;;;;;;;;5064038;28;20028;-64
2021/04/03 08:53:50;;;;;;;22.25;3.70;;;;;;;;;;5061750;28;20043;-65
2021/04/03 08:56:18;;;;;;;28.15;4.25;;;;;;;;;;5063606;28;20027;-63
2021/04/03 08:58:44;;;;;;;20.92;3.45;;;;;;;;;;5062718;28;20941;-63
2021/04/03 09:01:12;;;;;;;21.63;3.33;;;;;;;;;;5045368;28;20039;-63
2021/04/03 09:03:38;;;;;;;26.45;3.53;;;;;;;;;;5060293;28;20046;-64
2021/04/03 09:06:07;;;;;;;16.77;2.72;;;;;;;;;;5064370;28;20042;-62
2021/04/03 09:08:34;;;;;;;24.48;3.10;;;;;;;;;;5064982;28;20020;-64
2021/04/03 09:11:03;;;;;;;20.20;3.40;;;;;;;;;;5067570;28;20626;-62
2021/04/03 09:13:32;;;;;;;20.90;3.83;;;;;;;;;;5062409;28;20028;-64
2021/04/03 09:16:10;;;;;;;18.95;2.80;;;;;;;;;;5064642;28;20028;-65
2021/04/03 09:18:39;;;;;;;26.52;3.90;;;;;;;;;;5063254;28;20024;-63
2021/04/03 09:21:04;;;;;;;13.02;3.03;;;;;;;;;;5061416;28;20036;-64
2021/04/03 09:23:38;;;;;;;27.13;2.97;;;;;;;;;;5056465;28;20032;-64
2021/04/03 09:26:06;;;;;;;19.30;3.38;;;;;;;;;;5048234;28;20032;-64
2021/04/03 09:28:41;;;;;;;12.77;3.10;;;;;;;;;;5066453;28;20566;-64
2021/04/03 09:31:08;;;;;;;19.85;2.92;;;;;;;;;;5047517;28;20168;-64
2021/04/03 09:33:47;;;;;;;19.33;3.10;;;;;;;;;;5048688;28;20080;-64
2021/04/03 09:36:13;;;;;;;18.23;3.00;;;;;;;;;;5051396;28;21097;-64
2021/04/03 09:38:42;;;;;;;17.20;2.55;;;;;;;;;;5062652;28;20071;-64
2021/04/03 09:41:19;;;;;;;15.05;2.88;;;;;;;;;;5071938;28;20164;-64
2021/04/03 09:43:47;;;;;;;14.05;3.08;;;;;;;;;;5064560;28;20051;-65
2021/04/03 09:46:13;;;;;;;13.77;2.67;;;;;;;;;;5064549;28;20150;-65
2021/04/03 09:48:40;;;;;;;10.85;2.60;;;;;;;;;;5063004;28;20504;-66
2021/04/03 09:51:06;;;;;;;17.58;3.28;;;;;;;;;;5063514;28;20658;-64
2021/04/03 09:53:32;;;;;;;13.10;2.67;;;;;;;;;;5062816;28;20250;-65
2021/04/03 09:55:57;;;;;;;9.25;2.15;;;;;;;;;;5063773;28;20055;-64
2021/04/03 09:58:24;;;;;;;10.07;2.60;;;;;;;;;;5063796;28;20032;-64
2021/04/03 10:00:49;;;;;;;13.55;2.33;;;;;;;;;;5062594;28;20029;-65
2021/04/03 10:03:15;;;;;;;17.48;2.80;;;;;;;;;;5064505;28;20598;-64
2021/04/03 10:05:43;;;;;;;16.17;3.08;;;;;;;;;;5077208;28;20064;-65
2021/04/03 10:08:08;;;;;;;24.08;3.05;;;;;;;;;;5064327;28;20122;-64
2021/04/03 10:10:35;;;;;;;23.98;2.92;;;;;;;;;;5068389;28;20035;-65
2021/04/03 10:13:01;;;;;;;13.48;2.13;;;;;;;;;;5069803;28;20024;-63
2021/04/03 10:15:26;;;;;;;15.48;2.88;;;;;;;;;;5069713;28;20104;-64
2021/04/03 10:17:52;;;;;;;12.32;3.13;;;;;;;;;;5058352;28;20036;-63
2021/04/03 10:20:18;;;;;;;14.48;2.38;;;;;;;;;;5069267;28;21924;-63
2021/04/03 10:22:46;;;;;;;18.45;3.42;;;;;;;;;;5068462;28;20039;-63
2021/04/03 10:25:13;;;;;;;15.75;3.35;;;;;;;;;;5065270;28;20078;-63
2021/04/03 10:27:41;;;;;;;15.57;2.50;;;;;;;;;;5068450;28;20115;-63
2021/04/03 10:30:07;;;;;;;13.75;3.25;;;;;;;;;;5048138;28;20039;-63
2021/04/03 10:32:33;;;;;;;11.18;2.78;;;;;;;;;;5067674;28;20436;-65
2021/04/03 10:34:59;;;;;;;20.17;2.88;;;;;;;;;;5050197;28;20037;-65
2021/04/03 10:37:27;;;;;;;15.40;2.92;;;;;;;;;;5084093;27;20088;-65
2021/04/03 10:39:56;;;;;;;18.83;3.00;;;;;;;;;;5067695;28;20067;-65
2021/04/03 10:42:26;;;;;;;17.08;2.95;;;;;;;;;;5066496;28;20414;-65
2021/04/03 10:44:51;;;;;;;11.75;3.33;;;;;;;;;;5067924;28;20165;-63
2021/04/03 10:47:19;;;;;;;21.85;2.90;;;;;;;;;;5069114;28;20028;-64
2021/04/03 10:49:48;;;;;;;19.33;3.15;;;;;;;;;;5069879;28;20076;-62
2021/04/03 10:52:13;;;;;;;13.45;2.85;;;;;;;;;;5071443;28;20043;-65
2021/04/03 10:54:38;;;;;;;18.05;2.53;;;;;;;;;;5067274;28;20601;-64
2021/04/03 10:57:05;;;;;;;16.85;2.30;;;;;;;;;;5067222;28;20047;-63
2021/04/03 10:59:33;;;;;;;17.75;2.25;;;;;;;;;;5069410;28;20020;-66
2021/04/03 11:01:58;;;;;;;15.77;2.90;;;;;;;;;;5069565;28;20098;-65
2021/04/03 11:04:24;;;;;;;16.63;2.90;;;;;;;;;;5067471;28;20622;-65
2021/04/03 11:06:50;;;;;;;15.80;2.75;;;;;;;;;;5056479;28;20529;-66
2021/04/03 11:09:18;;;;;;;14.07;2.85;;;;;;;;;;5066641;28;20517;-66
2021/04/03 11:11:45;;;;;;;12.35;2.20;;;;;;;;;;5065771;28;20032;-65
2021/04/03 11:14:14;;;;;;;14.20;2.22;;;;;;;;;;5071105;28;20484;-65
2021/04/03 11:16:39;;;;;;;16.50;2.60;;;;;;;;;;5066666;28;20046;-64
2021/04/03 11:19:05;;;;;;;12.90;2.28;;;;;;;;;;5067763;28;20044;-65
2021/04/03 11:21:30;;;;;;;14.63;3.05;;;;;;;;;;5069051;28;20040;-65
2021/04/03 11:23:58;;;;;;;16.95;2.67;;;;;;;;;;5067498;28;20032;-63
2021/04/03 11:26:24;;;;;;;8.48;2.22;;;;;;;;;;5068186;28;20039;-64
2021/04/03 11:28:52;;;;;;;11.77;2.17;;;;;;;;;;5070503;28;20039;-65
2021/04/03 11:31:19;;;;;;;14.15;2.83;;;;;;;;;;5066464;28;20072;-65
2021/04/03 11:33:53;;;;;;;14.13;3.60;;;;;;;;;;5070370;28;20171;-64
2021/04/03 11:36:20;;;;;;;13.43;2.95;;;;;;;;;;5063627;28;20038;-65
2021/04/03 11:38:46;;;;;;;14.57;2.60;;;;;;;;;;5066753;28;20036;-64
2021/04/03 11:41:16;;;;;;;9.52;2.22;;;;;;;;;;5052462;28;20038;-63
2021/04/03 11:43:41;;;;;;;15.30;2.50;;;;;;;;;;5066454;28;20034;-66
2021/04/03 11:46:08;;;;;;;9.02;2.30;;;;;;;;;;5084478;27;20051;-64
2021/04/03 11:48:34;;;;;;;9.57;2.28;;;;;;;;;;5070925;27;20102;-64
2021/04/03 11:51:04;;;;;;;15.18;2.45;;;;;;;;;;5087842;27;20024;-66
2021/04/03 11:53:36;;;;;;;13.35;2.17;;;;;;;;;;5089178;27;20163;-65
2021/04/03 11:56:02;;;;;;;10.45;2.90;;;;;;;;;;5061701;27;20472;-65
2021/04/03 11:58:28;;;;;;;14.13;2.25;;;;;;;;;;5071884;27;20166;-64
2021/04/03 12:00:54;;;;;;;14.50;2.42;;;;;;;;;;5067133;27;20425;-64
2021/04/03 12:03:22;;;;;;;10.45;2.22;;;;;;;;;;5088508;27;20040;-63
2021/04/03 12:05:47;;;;;;;8.25;1.83;;;;;;;;;;5070917;27;20034;-64
2021/04/03 12:08:13;;;;;;;15.80;2.25;;;;;;;;;;5084419;27;20417;-64
2021/04/03 12:10:41;;;;;;;14.00;2.80;;;;;;;;;;5069740;27;20032;-64
2021/04/03 12:13:06;;;;;;;12.50;2.20;;;;;;;;;;5086579;27;20039;-64
2021/04/03 12:15:38;;;;;;;12.10;2.20;;;;;;;;;;5053918;27;20127;-64
2021/04/03 12:18:05;;;;;;;14.35;2.50;;;;;;;;;;5053834;27;20047;-64
2021/04/03 12:20:32;;;;;;;10.13;2.00;;;;;;;;;;5049744;27;20039;-65
2021/04/03 12:22:59;;;;;;;12.20;2.28;;;;;;;;;;5085682;27;20038;-66
2021/04/03 12:25:27;;;;;;;11.52;2.30;;;;;;;;;;5067930;27;20078;-64
2021/04/03 12:27:53;;;;;;;8.95;1.80;;;;;;;;;;5086456;27;20057;-64
2021/04/03 12:30:19;;;;;;;14.05;2.05;;;;;;;;;;5068915;27;20482;-65
2021/04/03 12:32:47;;;;;;;14.13;2.53;;;;;;;;;;5087557;27;20856;-64
2021/04/03 12:35:13;;;;;;;11.48;2.42;;;;;;;;;;5068210;27;20110;-63
2021/04/03 12:37:38;;;;;;;10.07;2.50;;;;;;;;;;5051323;27;20028;-64
2021/04/03 12:40:05;;;;;;;13.40;2.88;;;;;;;;;;5084745;27;20478;-64
2021/04/03 12:42:31;;;;;;;16.42;2.78;;;;;;;;;;5066066;27;20039;-65
2021/04/03 12:45:02;;;;;;;15.18;2.80;;;;;;;;;;5059377;27;20035;-63
2021/04/03 12:47:31;;;;;;;15.23;2.55;;;;;;;;;;5083701;27;20163;-66
2021/04/03 12:49:59;;;;;;;13.82;2.72;;;;;;;;;;5059607;28;20019;-65
2021/04/03 12:52:26;;;;;;;12.32;2.38;;;;;;;;;;5044740;28;20111;-65
2021/04/03 12:54:54;;;;;;;17.67;3.05;;;;;;;;;;5060370;28;20046;-63
2021/04/03 12:57:22;;;;;;;20.90;2.65;;;;;;;;;;5054169;27;20646;-65
2021/04/03 12:59:47;;;;;;;14.38;2.30;;;;;;;;;;5053369;27;20036;-65
2021/04/03 13:02:16;;;;;;;16.08;2.63;;;;;;;;;;5066923;27;20035;-65
2021/04/03 13:04:45;;;;;;;11.05;3.00;;;;;;;;;;5069111;27;20114;-65
2021/04/03 13:07:11;;;;;;;16.63;2.63;;;;;;;;;;5067654;27;20035;-65
2021/04/03 13:09:39;;;;;;;7.40;1.77;;;;;;;;;;5049111;27;20103;-63
2021/04/03 13:12:05;;;;;;;9.38;2.13;;;;;;;;;;5065548;28;20387;-66
2021/04/03 13:14:30;;;;;;;11.93;2.35;;;;;;;;;;5054231;27;20028;-65
2021/04/03 13:16:56;;;;;;;16.30;2.22;;;;;;;;;;5052793;27;20032;-64
2021/04/03 13:19:21;;;;;;;16.50;2.65;;;;;;;;;;5069255;27;20085;-65
2021/04/03 13:21:48;;;;;;;12.45;2.17;;;;;;;;;;5084867;27;22064;-66
2021/04/03 13:24:16;;;;;;;10.60;2.20;;;;;;;;;;5068675;27;20019;-67
2021/04/03 13:26:44;;;;;;;13.65;2.38;;;;;;;;;;5063484;27;20027;-64
2021/04/03 13:29:09;;;;;;;16.15;2.63;;;;;;;;;;5066863;27;20558;-65
2021/04/03 13:31:37;;;;;;;18.58;2.63;;;;;;;;;;5086211;27;20019;-64
2021/04/03 13:34:05;;;;;;;8.60;1.73;;;;;;;;;;5067057;27;20170;-65
2021/04/03 13:36:33;;;;;;;17.33;3.13;;;;;;;;;;5087138;27;20066;-65
2021/04/03 13:38:59;;;;;;;10.02;2.25;;;;;;;;;;5049711;28;20600;-65
2021/04/03 13:41:25;;;;;;;14.50;1.73;;;;;;;;;;5084690;27;20035;-66
2021/04/03 13:43:50;;;;;;;16.25;1.88;;;;;;;;;;5067319;28;20082;-66
2021/04/03 13:46:18;;;;;;;14.52;2.45;;;;;;;;;;5082654;27;21983;-66
2021/04/03 13:48:45;;;;;;;21.75;2.78;;;;;;;;;;5084305;27;20032;-65
2021/04/03 13:51:15;;;;;;;18.65;2.78;;;;;;;;;;5076380;28;20917;-64
2021/04/03 13:53:48;;;;;;;13.80;2.60;;;;;;;;;;5048189;28;20038;-64
2021/04/03 13:56:15;;;;;;;10.85;2.60;;;;;;;;;;5066688;28;20419;-65
2021/04/03 13:58:44;;;;;;;11.38;2.45;;;;;;;;;;5044128;28;20040;-64
2021/04/03 14:01:12;;;;;;;7.10;2.00;;;;;;;;;;5069445;28;20110;-67
2021/04/03 14:03:43;;;;;;;13.40;2.10;;;;;;;;;;5065175;28;20059;-64
2021/04/03 14:06:10;;;;;;;7.80;2.22;;;;;;;;;;5050266;28;20035;-63
2021/04/03 14:08:36;;;;;;;7.85;2.00;;;;;;;;;;5080115;28;20035;-66
2021/04/03 14:11:06;;;;;;;11.98;2.33;;;;;;;;;;5035775;28;20042;-64
2021/04/03 14:13:33;;;;;;;12.18;2.15;;;;;;;;;;5066904;28;20059;-64
2021/04/03 14:16:03;;;;;;;10.63;2.22;;;;;;;;;;5067902;28;20118;-65
2021/04/03 14:18:33;;;;;;;15.30;2.20;;;;;;;;;;5069409;28;20110;-64
2021/04/03 14:20:58;;;;;;;13.35;2.45;;;;;;;;;;5065217;28;20035;-64
2021/04/03 14:23:24;;;;;;;12.02;2.08;;;;;;;;;;5049591;28;21110;-62
2021/04/03 14:25:52;;;;;;;12.30;2.20;;;;;;;;;;5066169;28;20170;-64
2021/04/03 14:28:18;;;;;;;16.17;2.50;;;;;;;;;;5065241;28;20032;-65
2021/04/03 14:30:43;;;;;;;10.48;2.10;;;;;;;;;;5066715;28;20478;-64
2021/04/03 14:33:09;;;;;;;10.70;1.73;;;;;;;;;;5085314;28;20054;-64
2021/04/03 14:35:37;;;;;;;11.68;1.98;;;;;;;;;;5050715;28;20995;-65